createdAt,value
2023-01-08T00:07:42.698Z,73.53
2023-01-08T00:17:46.639Z,68.03
2023-01-08T00:27:55.373Z,73.67
2023-01-08T00:38:04.698Z,70.90
2023-01-08T00:48:14.454Z,75.47
2023-01-08T00:58:24.359Z,61.53
2023-01-08T01:08:28.031Z,55.50
2023-01-08T01:18:35.545Z,57.03
2023-01-08T01:28:45.915Z,47.70
2023-01-08T01:38:49.901Z,56.17
2023-01-08T01:48:55.565Z,32.60
2023-01-08T01:58:58.301Z,55.07
2023-01-08T02:09:06.519Z,50.63
2023-01-08T02:19:23.153Z,47.40
2023-01-08T02:29:29.540Z,42.37
2023-01-08T02:40:08.069Z,37.13
2023-01-08T02:50:34.036Z,34.77
2023-01-08T03:00:38.665Z,29.57
2023-01-08T03:10:43.595Z,29.83
2023-01-08T03:20:48.704Z,26.53
2023-01-08T03:30:53.884Z,28.30
2023-01-08T03:41:06.291Z,19.03
2023-01-08T03:51:12.615Z,24.90
2023-01-08T04:01:19.297Z,26.33
2023-01-08T04:11:26.815Z,25.63
2023-01-08T04:21:33.637Z,23.87
2023-01-08T04:31:35.833Z,21.47
2023-01-08T04:41:43.379Z,23.67
2023-01-08T04:51:49.147Z,23.40
2023-01-08T05:01:51.575Z,27.73
2023-01-08T05:11:56.242Z,21.37
2023-01-08T05:21:58.695Z,17.87
2023-01-08T05:32:06.951Z,17.77
2023-01-08T05:42:16.633Z,20.23
2023-01-08T05:52:22.813Z,17.37
2023-01-08T06:02:34.363Z,15.53
2023-01-08T06:12:39.797Z,16.27
2023-01-08T06:22:44.226Z,21.33
2023-01-08T06:32:49.109Z,15.50
2023-01-08T06:42:53.549Z,13.53
2023-01-08T06:52:57.817Z,17.47
2023-01-08T07:03:01.889Z,10.73
2023-01-08T07:13:12.013Z,19.47
2023-01-08T07:23:17.303Z,16.73
2023-01-08T07:33:22.175Z,17.13
2023-01-08T07:43:30.198Z,17.80
2023-01-08T07:53:45.629Z,19.70
2023-01-08T08:03:55.131Z,20.80
2023-01-08T08:13:57.329Z,18.87
2023-01-08T08:23:59.689Z,14.73
2023-01-08T08:34:02.332Z,20.77
2023-01-08T08:44:05.534Z,20.07
2023-01-08T08:54:12.835Z,22.47
2023-01-08T09:04:16.317Z,16.07
2023-01-08T09:14:23.463Z,19.77
2023-01-08T09:24:35.203Z,22.70
2023-01-08T09:34:39.838Z,24.67
2023-01-08T09:44:46.255Z,21.00
2023-01-08T09:54:55.069Z,17.03
2023-01-08T10:05:05.042Z,16.47
2023-01-08T10:15:11.353Z,20.00
2023-01-08T10:25:26.271Z,19.17
2023-01-08T10:35:38.114Z,18.73
2023-01-08T10:45:47.707Z,19.23
2023-01-08T10:56:01.103Z,20.57
2023-01-08T11:06:14.849Z,23.67
2023-01-08T11:16:24.054Z,21.67
2023-01-08T11:26:32.010Z,27.67
2023-01-08T11:36:37.517Z,27.50
2023-01-08T11:46:57.571Z,27.60
2023-01-08T11:57:34.435Z,26.63
2023-01-08T12:08:23.209Z,29.33
2023-01-08T12:19:03.777Z,29.03
2023-01-08T12:29:06.938Z,26.43
2023-01-08T12:39:21.481Z,19.17
2023-01-08T12:49:40.939Z,26.53
2023-01-08T13:00:52.040Z,24.57
2023-01-08T13:10:57.918Z,19.87
2023-01-08T13:21:07.585Z,25.73
2023-01-08T13:31:23.357Z,33.50
2023-01-08T13:41:36.525Z,19.60
2023-01-08T13:51:42.308Z,25.53
2023-01-08T14:01:57.838Z,39.47
2023-01-08T14:12:01.538Z,35.40
2023-01-08T14:22:09.358Z,30.80
2023-01-08T14:32:21.599Z,35.93
2023-01-08T14:42:50.368Z,36.67
2023-01-08T14:53:08.307Z,36.73
2023-01-08T15:03:41.378Z,37.57
2023-01-08T15:13:44.836Z,40.23
2023-01-08T15:23:56.793Z,30.93
2023-01-08T15:34:03.908Z,34.20
2023-01-08T15:44:17.058Z,36.07
2023-01-08T15:54:34.462Z,34.93
2023-01-08T16:04:38.984Z,33.67
2023-01-08T16:14:49.288Z,36.53
2023-01-08T16:24:52.305Z,34.87
2023-01-08T16:35:02.834Z,33.20
2023-01-08T16:45:08.770Z,33.93
2023-01-08T16:55:15.550Z,37.47
2023-01-08T17:05:23.320Z,33.90
2023-01-08T17:15:26.062Z,33.90
2023-01-08T17:25:29.917Z,34.87
2023-01-08T17:35:40.015Z,39.90
2023-01-08T17:45:43.184Z,32.87
2023-01-08T17:55:57.446Z,34.60
2023-01-08T18:06:20.756Z,37.87
2023-01-08T18:16:36.172Z,38.37
2023-01-08T18:26:38.923Z,26.10
2023-01-08T18:36:50.276Z,35.73
2023-01-08T18:46:54.309Z,33.87
2023-01-08T18:56:58.093Z,34.13
2023-01-08T19:07:01.856Z,39.77
2023-01-08T19:17:04.104Z,39.53
2023-01-08T19:27:06.312Z,39.63
2023-01-08T19:37:15.135Z,35.60
2023-01-08T19:47:17.184Z,37.00
2023-01-08T19:57:19.241Z,38.40
2023-01-08T20:07:26.033Z,36.90
2023-01-08T20:17:30.886Z,41.80
2023-01-08T20:27:35.404Z,43.53
2023-01-08T20:37:39.795Z,42.27
2023-01-08T20:47:42.597Z,54.00
2023-01-08T20:57:44.675Z,44.97
2023-01-08T21:07:49.354Z,38.33
2023-01-08T21:17:51.756Z,48.30
2023-01-08T21:27:56.136Z,52.33
2023-01-08T21:38:00.516Z,43.77
2023-01-08T21:48:02.825Z,52.17
2023-01-08T21:58:09.626Z,49.80
2023-01-08T22:08:18.555Z,51.07
2023-01-08T22:18:20.774Z,55.13
2023-01-08T22:28:27.182Z,55.40
2023-01-08T22:38:29.389Z,52.13
2023-01-08T22:48:33.805Z,51.83
2023-01-08T22:58:35.986Z,36.87
2023-01-08T23:08:38.781Z,49.00
2023-01-08T23:18:44.045Z,58.20
2023-01-08T23:28:52.545Z,61.67
2023-01-08T23:38:58.064Z,59.53
2023-01-08T23:49:00.250Z,55.30
2023-01-08T23:59:04.646Z,47.40
